Time;durP1;ratioP1;P1;durP2;ratioP2;P2;SDS_P1;SDS_P2;PMS_P1;PMS_P2;Temp;Humidity;BMP_temperature;BMP_pressure;BME280_temperature;BME280_humidity;BME280_pressure;Samples;Min_cycle;Max_cycle;Signal;HPM_P1;HPM_P2
2021/07/11 00:00:30;;;;;;;1.30;1.00;;;;;;;18.91;77.74;98753.84;5114578;27;40979;-82
2021/07/11 00:02:59;;;;;;;0.80;0.80;;;;;;;18.94;78.22;98772.31;5132613;27;43099;-82
2021/07/11 00:05:28;;;;;;;0.70;0.70;;;;;;;18.92;78.09;98782.34;5133288;27;42535;-82
2021/07/11 00:07:56;;;;;;;1.20;1.10;;;;;;;18.88;78.62;98781.00;5115421;27;39345;-82
2021/07/11 00:10:25;;;;;;;1.10;1.00;;;;;;;18.76;78.31;98765.25;5131717;27;41435;-83
2021/07/11 00:12:55;;;;;;;0.93;0.90;;;;;;;18.83;78.38;98777.91;5114604;27;42721;-82
2021/07/11 00:15:24;;;;;;;0.90;0.90;;;;;;;18.81;79.13;98779.03;5114370;27;41377;-82
2021/07/11 00:17:52;;;;;;;1.10;1.00;;;;;;;18.70;78.46;98772.03;5132191;27;39868;-82
2021/07/11 00:20:23;;;;;;;1.07;1.03;;;;;;;18.75;78.52;98768.91;5130477;27;41036;-83
2021/07/11 00:22:51;;;;;;;0.97;0.97;;;;;;;18.78;78.52;98774.84;5132325;27;42598;-83
2021/07/11 00:25:19;;;;;;;0.90;0.90;;;;;;;18.76;78.05;98776.81;5114005;27;41141;-83
2021/07/11 00:27:47;;;;;;;1.53;1.10;;;;;;;18.75;78.72;98780.50;5114762;27;39189;-83
2021/07/11 00:30:17;;;;;;;1.40;1.10;;;;;;;18.65;79.57;98752.88;5113423;27;41857;-82
2021/07/11 00:32:45;;;;;;;1.30;1.20;;;;;;;18.69;79.81;98764.13;5114208;27;41726;-82
2021/07/11 00:35:13;;;;;;;0.70;0.70;;;;;;;18.70;79.87;98776.56;5114062;27;42523;-83
2021/07/11 00:37:43;;;;;;;1.37;1.27;;;;;;;18.60;79.70;98756.00;5131833;27;39153;-82
2021/07/11 00:40:13;;;;;;;1.10;0.90;;;;;;;18.71;79.85;98767.53;5130905;27;41729;-82
2021/07/11 00:42:44;;;;;;;1.00;0.97;;;;;;;18.67;79.59;98758.91;5112331;27;42879;-82
2021/07/11 00:45:14;;;;;;;1.17;1.07;;;;;;;18.75;79.21;98760.88;5111826;27;41177;-82
2021/07/11 00:47:43;;;;;;;1.43;1.33;;;;;;;18.75;79.52;98761.72;5114689;27;38943;-82
2021/07/11 00:50:15;;;;;;;1.47;1.00;;;;;;;18.70;79.50;98750.56;5116509;27;41622;-83
2021/07/11 00:52:45;;;;;;;0.73;0.73;;;;;;;18.74;79.48;98757.34;5131848;27;41954;-83
2021/07/11 00:55:23;;;;;;;1.03;0.80;;;;;;;18.69;79.02;98745.34;5113518;27;41489;-82
2021/07/11 00:57:51;;;;;;;1.40;1.30;;;;;;;18.61;79.38;98732.69;5114490;27;40202;-83
2021/07/11 01:00:22;;;;;;;1.43;1.33;;;;;;;18.55;79.28;98726.06;5113967;27;41252;-82
2021/07/11 01:03:08;;;;;;;1.13;1.10;;;;;;;18.55;79.53;98719.84;5131856;27;42872;-83
2021/07/11 01:05:38;;;;;;;1.10;1.00;;;;;;;18.64;79.16;98730.56;5113822;27;41396;-83
2021/07/11 01:08:12;;;;;;;1.20;1.10;;;;;;;18.62;79.12;98727.19;5113474;27;39906;-83
2021/07/11 01:10:45;;;;;;;1.00;1.00;;;;;;;18.69;78.86;98732.78;5130798;27;41675;-83
2021/07/11 01:13:17;;;;;;;1.33;0.80;;;;;;;18.63;78.60;98722.66;5113232;27;41697;-83
2021/07/11 01:15:53;;;;;;;1.50;1.40;;;;;;;18.71;78.63;98741.53;5112638;27;41225;-82
2021/07/11 01:18:23;;;;;;;1.10;1.00;;;;;;;18.64;78.57;98733.25;5113544;27;39089;-83
2021/07/11 01:20:56;;;;;;;1.00;1.00;;;;;;;18.69;78.81;98742.66;5132355;27;42008;-83
2021/07/11 01:23:38;;;;;;;1.03;0.93;;;;;;;18.71;78.72;98746.06;5113720;27;42058;-83
2021/07/11 01:26:10;;;;;;;1.23;1.13;;;;;;;18.67;78.65;98734.78;5113601;27;41177;-83
2021/07/11 01:28:39;;;;;;;0.87;0.87;;;;;;;18.69;78.66;98732.78;5113966;27;39906;-83
2021/07/11 01:31:08;;;;;;;0.90;0.90;;;;;;;18.60;78.53;98725.66;5113306;27;41941;-82
2021/07/11 01:33:40;;;;;;;0.90;0.90;;;;;;;18.60;78.38;98718.44;5131150;27;43163;-82
2021/07/11 01:36:09;;;;;;;1.00;0.90;;;;;;;18.63;78.48;98733.41;5112712;27;42030;-82
2021/07/11 01:38:38;;;;;;;1.80;1.20;;;;;;;18.62;78.25;98726.34;5113963;27;38934;-83
2021/07/11 01:41:09;;;;;;;0.93;0.93;;;;;;;18.68;78.33;98731.09;5130416;27;41804;-83
2021/07/11 01:43:36;;;;;;;1.07;1.03;;;;;;;18.60;78.25;98712.22;5113602;27;42176;-81
2021/07/11 01:46:07;;;;;;;1.27;1.17;;;;;;;18.69;78.78;98729.25;5112637;27;42234;-82
2021/07/11 01:48:38;;;;;;;1.47;1.37;;;;;;;18.63;78.29;98722.66;5130356;27;40996;-82
2021/07/11 01:51:06;;;;;;;1.00;1.00;;;;;;;18.45;78.28;98692.25;5113556;27;40656;-82
2021/07/11 01:53:37;;;;;;;1.33;1.17;;;;;;;18.66;78.21;98730.44;5113372;27;42057;-82
2021/07/11 01:56:07;;;;;;;1.00;0.97;;;;;;;18.49;78.52;98701.69;5112712;27;41383;-84
2021/07/11 01:58:36;;;;;;;1.43;1.20;;;;;;;18.65;78.56;98734.09;5116186;27;39825;-83
2021/07/11 02:01:08;;;;;;;1.20;1.03;;;;;;;18.63;78.35;98733.41;5116135;27;41765;-83
2021/07/11 02:03:38;;;;;;;0.90;0.90;;;;;;;18.58;78.67;98719.59;5116260;27;41562;-82
2021/07/11 02:06:11;;;;;;;0.93;0.83;;;;;;;18.55;78.69;98720.69;5116311;27;42460;-84
2021/07/11 02:08:44;;;;;;;1.47;1.37;;;;;;;18.61;78.79;98721.97;5134186;27;40796;-83
2021/07/11 02:11:25;;;;;;;1.00;1.00;;;;;;;18.57;79.30;98724.06;5133850;27;41940;-83
2021/07/11 02:14:16;;;;;;;0.80;0.80;;;;;;;18.58;79.03;98730.31;5116139;27;41974;-82
2021/07/11 02:16:53;;;;;;;0.87;0.87;;;;;;;18.55;79.52;98727.88;5116526;27;42632;-82
2021/07/11 02:19:29;;;;;;;1.57;1.30;;;;;;;18.54;79.25;98723.53;5116281;27;40230;-81
2021/07/11 02:21:57;;;;;;;1.03;1.00;;;;;;;18.56;79.44;98729.56;5133523;27;41982;-82
2021/07/11 02:24:26;;;;;;;1.10;0.90;;;;;;;18.46;79.67;98721.59;5115679;27;43344;-81
2021/07/11 02:26:55;;;;;;;1.33;1.23;;;;;;;18.45;79.41;98716.38;5115897;27;41533;-83
2021/07/11 02:29:28;;;;;;;0.93;0.93;;;;;;;18.42;79.96;98711.34;5116343;27;39326;-84
2021/07/11 02:32:02;;;;;;;1.47;1.37;;;;;;;18.43;79.53;98721.03;5134007;27;42075;-83
2021/07/11 02:34:31;;;;;;;1.10;1.00;;;;;;;18.48;79.58;98734.84;5115938;27;42154;-81
2021/07/11 02:37:01;;;;;;;1.43;1.33;;;;;;;18.44;79.83;98730.78;5132942;27;42465;-81
2021/07/11 02:39:30;;;;;;;1.17;1.10;;;;;;;18.38;79.98;98728.69;5115726;27;39616;-82
2021/07/11 02:42:07;;;;;;;1.03;1.03;;;;;;;18.45;80.20;98751.22;5115322;27;40824;-82
2021/07/11 02:44:38;;;;;;;1.07;0.97;;;;;;;18.12;80.18;98697.19;5132793;27;43189;-81
2021/07/11 02:47:09;;;;;;;1.07;1.07;;;;;;;18.11;80.34;98687.47;5115009;27;41144;-83
2021/07/11 02:49:45;;;;;;;1.10;1.10;;;;;;;18.49;80.18;98752.63;5116053;27;39929;-83
2021/07/11 02:52:17;;;;;;;1.40;1.30;;;;;;;18.49;80.50;98758.00;5133014;27;41434;-82
2021/07/11 02:54:48;;;;;;;0.93;0.90;;;;;;;18.45;81.11;98757.44;5115917;27;43209;-84
2021/07/11 02:57:22;;;;;;;2.07;1.87;;;;;;;18.31;81.37;98745.34;5133250;27;42970;-83
2021/07/11 02:59:54;;;;;;;1.23;1.13;;;;;;;18.34;81.09;98752.28;5116226;27;40292;-82
2021/07/11 03:02:25;;;;;;;1.20;1.10;;;;;;;18.32;81.20;98751.56;5132383;27;42039;-82
2021/07/11 03:04:56;;;;;;;1.30;1.20;;;;;;;18.43;81.20;98770.16;5115212;27;41623;-84
2021/07/11 03:07:25;;;;;;;1.40;1.30;;;;;;;18.46;81.13;98763.66;5114106;27;42446;-83
2021/07/11 03:09:53;;;;;;;1.27;1.17;;;;;;;18.33;81.78;98752.41;5132239;27;39193;-83
2021/07/11 03:12:26;;;;;;;1.40;1.30;;;;;;;18.44;81.44;98769.16;5132178;27;42119;-82
2021/07/11 03:14:57;;;;;;;0.77;0.77;;;;;;;18.45;81.52;98775.38;5114798;27;42000;-81
2021/07/11 03:17:27;;;;;;;1.83;1.27;;;;;;;18.47;81.15;98773.38;5113997;27;41587;-83
2021/07/11 03:19:57;;;;;;;0.80;0.80;;;;;;;18.49;81.29;98774.09;5114835;27;38964;-84
2021/07/11 03:22:31;;;;;;;1.40;1.27;;;;;;;18.50;81.29;98775.78;5114985;27;41586;-82
2021/07/11 03:25:05;;;;;;;1.00;1.00;;;;;;;18.48;81.35;98767.88;5114494;27;41625;-84
2021/07/11 03:27:35;;;;;;;1.10;1.00;;;;;;;18.40;81.33;98757.06;5115033;27;41415;-83
2021/07/11 03:30:10;;;;;;;1.30;1.20;;;;;;;18.53;81.22;98786.22;5133225;27;40207;-85
2021/07/11 03:32:41;;;;;;;0.90;0.90;;;;;;;18.53;80.67;98783.53;5115394;27;41002;-84
2021/07/11 03:35:11;;;;;;;0.77;0.77;;;;;;;18.51;80.98;98782.84;5115156;27;42882;-82
2021/07/11 03:37:46;;;;;;;0.80;0.80;;;;;;;18.54;81.03;98788.75;5114644;27;41147;-84
2021/07/11 03:40:19;;;;;;;0.90;0.80;;;;;;;18.45;81.16;98772.69;5114632;27;39867;-85
2021/07/11 03:42:49;;;;;;;1.90;0.90;;;;;;;18.54;81.09;98786.09;5095707;28;40633;-84
2021/07/11 03:45:19;;;;;;;0.83;0.73;;;;;;;18.54;81.89;98783.41;5097736;27;41692;-82
2021/07/11 03:47:53;;;;;;;0.90;0.90;;;;;;;18.29;81.66;98746.53;5114686;27;41325;-82
2021/07/11 03:50:22;;;;;;;0.97;0.97;;;;;;;18.53;81.80;98786.22;5114758;27;40368;-83
2021/07/11 03:52:55;;;;;;;0.73;0.73;;;;;;;18.53;81.82;98786.22;5132012;27;40594;-84
2021/07/11 03:55:22;;;;;;;0.97;0.97;;;;;;;18.56;81.98;98791.28;5114255;27;41695;-83
2021/07/11 03:57:52;;;;;;;0.73;0.63;;;;;;;18.58;81.97;98783.97;5114669;27;41455;-83
2021/07/11 04:00:23;;;;;;;1.27;1.13;;;;;;;18.58;81.88;98778.59;5113856;27;39336;-83
2021/07/11 04:02:52;;;;;;;0.77;0.77;;;;;;;18.43;82.03;98771.97;5113983;27;40582;-82
2021/07/11 04:05:23;;;;;;;1.40;1.13;;;;;;;18.48;82.30;98767.88;5113056;27;42649;-82
2021/07/11 04:07:53;;;;;;;0.67;0.67;;;;;;;18.54;81.82;98787.91;5113420;27;41292;-82
2021/07/11 04:10:24;;;;;;;0.90;0.90;;;;;;;18.60;81.91;98803.44;5135095;27;40194;-82
2021/07/11 04:12:52;;;;;;;1.23;1.13;;;;;;;18.55;82.00;98789.56;5117215;27;41680;-82
2021/07/11 04:15:22;;;;;;;1.23;1.13;;;;;;;18.51;81.99;98790.88;5128380;27;42177;-81
2021/07/11 04:17:52;;;;;;;0.50;0.50;;;;;;;18.62;82.35;98815.72;5129324;27;41045;-80
2021/07/11 04:20:22;;;;;;;0.80;0.80;;;;;;;18.65;82.06;98814.56;5152532;27;40263;-81
2021/07/11 04:22:55;;;;;;;1.10;1.07;;;;;;;18.64;82.17;98804.84;5153115;27;42383;-82
2021/07/11 04:25:23;;;;;;;0.73;0.73;;;;;;;18.62;82.16;98798.78;5135928;27;42852;-81
2021/07/11 04:27:53;;;;;;;1.03;0.80;;;;;;;18.61;82.30;98799.75;5136726;27;41175;-85
2021/07/11 04:30:22;;;;;;;1.00;0.90;;;;;;;18.63;81.97;98798.63;5139390;27;40704;-84
2021/07/11 04:32:50;;;;;;;1.17;1.10;;;;;;;18.76;81.95;98809.00;5116465;27;40581;-83
2021/07/11 04:35:18;;;;;;;0.80;0.80;;;;;;;18.79;81.91;98808.69;5117901;27;41594;-84
2021/07/11 04:37:45;;;;;;;0.70;0.70;;;;;;;18.70;82.09;98792.66;5118195;27;41481;-82
2021/07/11 04:40:14;;;;;;;1.10;1.00;;;;;;;18.80;81.99;98804.16;5118034;27;39159;-82
2021/07/11 04:42:43;;;;;;;0.90;0.80;;;;;;;18.72;82.25;98798.72;5101556;28;41672;-82
2021/07/11 04:45:11;;;;;;;0.70;0.70;;;;;;;18.79;82.49;98808.69;5093927;28;41795;-84
2021/07/11 04:47:41;;;;;;;0.73;0.73;;;;;;;18.73;82.28;98798.56;5109299;27;42400;-83
2021/07/11 04:50:10;;;;;;;0.67;0.67;;;;;;;18.70;82.14;98804.22;5113985;27;39422;-82
2021/07/11 04:52:39;;;;;;;1.00;1.00;;;;;;;18.80;82.44;98815.75;5130127;27;42209;-83
2021/07/11 04:55:08;;;;;;;0.60;0.60;;;;;;;18.76;82.24;98809.00;5113820;27;42221;-82
2021/07/11 04:57:36;;;;;;;0.83;0.80;;;;;;;18.71;82.20;98811.28;5113637;27;41024;-81
2021/07/11 05:00:06;;;;;;;0.63;0.63;;;;;;;18.72;82.60;98804.09;5113638;27;39883;-84
2021/07/11 05:02:34;;;;;;;1.23;0.70;;;;;;;18.83;82.12;98831.56;5113012;27;41653;-84
2021/07/11 05:05:04;;;;;;;0.73;0.73;;;;;;;18.73;82.00;98822.72;5130588;27;41759;-84
2021/07/11 05:07:33;;;;;;;1.17;0.70;;;;;;;18.72;81.64;98815.66;5113100;27;41399;-81
2021/07/11 05:10:00;;;;;;;0.63;0.63;;;;;;;18.78;81.92;98828.50;5113450;27;40120;-82
2021/07/11 05:12:28;;;;;;;0.87;0.87;;;;;;;18.76;82.21;98824.28;5130215;27;42722;-84
2021/07/11 05:14:56;;;;;;;0.60;0.60;;;;;;;18.74;82.20;98832.47;5131369;27;42936;-83
2021/07/11 05:17:23;;;;;;;0.73;0.73;;;;;;;18.82;82.32;98850.50;5112523;27;41653;-84
2021/07/11 05:19:51;;;;;;;1.00;0.90;;;;;;;18.66;82.61;98835.03;5113483;27;40096;-84
2021/07/11 05:22:20;;;;;;;0.57;0.57;;;;;;;18.76;82.79;98862.69;5092544;28;41915;-82
2021/07/11 05:24:48;;;;;;;0.70;0.70;;;;;;;18.41;82.19;98806.16;5101292;27;42031;-82
2021/07/11 05:27:15;;;;;;;0.87;0.87;;;;;;;18.65;82.11;98844.94;5129266;27;42326;-85
2021/07/11 05:29:43;;;;;;;0.60;0.60;;;;;;;18.72;82.40;98852.38;5130920;27;40046;-84
2021/07/11 05:32:10;;;;;;;0.90;0.90;;;;;;;18.76;82.26;98848.41;5114633;27;41043;-83
2021/07/11 05:34:38;;;;;;;0.60;0.60;;;;;;;18.79;82.28;98857.00;5133848;27;42731;-84
2021/07/11 05:37:06;;;;;;;0.93;0.83;;;;;;;18.74;81.97;98840.50;5116433;27;42126;-82
2021/07/11 05:39:35;;;;;;;0.70;0.70;;;;;;;18.89;82.03;98856.97;5116643;27;39033;-83
2021/07/11 05:42:04;;;;;;;0.70;0.70;;;;;;;18.95;81.85;98865.25;5116206;27;40770;-83
2021/07/11 05:44:31;;;;;;;0.50;0.40;;;;;;;18.99;81.77;98869.34;5115904;27;42763;-83
2021/07/11 05:46:59;;;;;;;0.73;0.73;;;;;;;18.94;81.49;98855.53;5116160;27;41302;-84
2021/07/11 05:49:26;;;;;;;0.60;0.60;;;;;;;18.90;81.66;98851.47;5116671;27;39267;-83
2021/07/11 05:51:54;;;;;;;0.70;0.70;;;;;;;18.82;81.49;98845.97;5116248;27;41583;-83
2021/07/11 05:54:22;;;;;;;1.43;1.10;;;;;;;18.86;81.38;98860.78;5133635;27;42828;-85
2021/07/11 05:56:51;;;;;;;0.60;0.60;;;;;;;18.77;81.66;98858.16;5133163;27;41665;-84
2021/07/11 05:59:19;;;;;;;0.77;0.77;;;;;;;18.83;81.56;98874.50;5133524;27;40402;-84
2021/07/11 06:01:47;;;;;;;0.90;0.90;;;;;;;18.75;81.81;98858.31;5116494;27;40941;-83
2021/07/11 06:04:14;;;;;;;0.70;0.70;;;;;;;18.75;81.94;98863.66;5116049;27;42144;-83
2021/07/11 06:06:42;;;;;;;0.63;0.63;;;;;;;18.71;81.68;98864.94;5116051;27;41589;-82
2021/07/11 06:09:10;;;;;;;1.03;0.63;;;;;;;18.76;81.75;98873.41;5115584;27;40232;-83
2021/07/11 06:11:39;;;;;;;1.57;1.13;;;;;;;18.68;81.74;98873.28;5115903;27;41009;-85
2021/07/11 06:14:09;;;;;;;1.10;0.90;;;;;;;18.79;81.91;98881.13;5133628;27;42984;-83
2021/07/11 06:16:36;;;;;;;0.70;0.67;;;;;;;18.66;81.82;98856.50;5116410;27;42467;-84
2021/07/11 06:19:04;;;;;;;0.80;0.80;;;;;;;18.80;81.76;98885.50;5115948;27;38923;-82
2021/07/11 06:21:32;;;;;;;0.50;0.50;;;;;;;18.84;81.38;98888.75;5115561;27;42187;-82
2021/07/11 06:24:00;;;;;;;0.70;0.70;;;;;;;18.76;81.34;98873.41;5115369;27;42124;-83
2021/07/11 06:26:28;;;;;;;1.27;1.17;;;;;;;18.76;81.78;98870.72;5115790;27;41531;-82
2021/07/11 06:28:55;;;;;;;1.10;0.97;;;;;;;18.83;81.54;98879.88;5132509;27;39269;-85
2021/07/11 06:31:25;;;;;;;0.90;0.90;;;;;;;18.61;81.67;98848.03;5115060;27;41003;-83
2021/07/11 06:33:52;;;;;;;1.43;1.33;;;;;;;18.77;81.58;98882.31;5116227;27;41685;-82
2021/07/11 06:36:20;;;;;;;1.07;1.07;;;;;;;18.87;81.59;98896.53;5115068;27;42283;-82
2021/07/11 06:38:48;;;;;;;1.57;1.20;;;;;;;18.88;81.51;98887.47;5115934;27;38775;-83
2021/07/11 06:41:15;;;;;;;1.20;1.10;;;;;;;18.94;81.07;98886.88;5132395;27;42767;-83
2021/07/11 06:43:43;;;;;;;1.07;1.07;;;;;;;18.92;81.19;98884.34;5133099;27;42069;-82
2021/07/11 06:46:10;;;;;;;1.30;1.20;;;;;;;19.05;81.21;98901.94;5115247;27;41093;-86
2021/07/11 06:48:40;;;;;;;1.20;1.10;;;;;;;19.10;80.93;98900.53;5133578;27;40357;-84
2021/07/11 06:51:07;;;;;;;1.40;1.20;;;;;;;19.06;80.81;98890.22;5115269;27;40693;-83
2021/07/11 06:53:35;;;;;;;1.13;1.03;;;;;;;19.15;80.86;98913.50;5109216;27;42988;-83
2021/07/11 06:56:04;;;;;;;1.67;1.57;;;;;;;19.03;80.99;98886.00;5115071;27;41041;-83
2021/07/11 06:58:31;;;;;;;1.10;1.03;;;;;;;19.14;81.24;98909.13;5115762;27;39953;-84
2021/07/11 07:00:59;;;;;;;1.67;1.57;;;;;;;19.14;80.89;98898.38;5132075;27;42103;-83
2021/07/11 07:03:27;;;;;;;0.83;0.70;;;;;;;19.29;80.50;98907.63;5115407;27;41803;-83
2021/07/11 07:05:56;;;;;;;1.23;1.13;;;;;;;19.32;80.46;98910.00;5131936;27;43298;-83
2021/07/11 07:08:25;;;;;;;1.50;0.90;;;;;;;19.32;80.53;98912.69;5131503;27;40257;-83
2021/07/11 07:10:53;;;;;;;1.30;1.20;;;;;;;19.25;80.64;98907.09;5114814;27;40960;-85
2021/07/11 07:13:21;;;;;;;1.20;1.10;;;;;;;19.24;80.37;98904.56;5115481;27;42154;-85
2021/07/11 07:15:49;;;;;;;1.47;1.07;;;;;;;19.11;80.35;98877.19;5114708;27;41366;-84
2021/07/11 07:18:17;;;;;;;1.37;1.27;;;;;;;19.36;80.31;98898.81;5113844;27;39235;-84
2021/07/11 07:20:44;;;;;;;0.57;0.57;;;;;;;19.57;80.32;98917.38;5111202;28;40670;-84
2021/07/11 07:23:17;;;;;;;0.80;0.80;;;;;;;19.45;80.28;98878.28;5094281;28;42083;-84
2021/07/11 07:25:45;;;;;;;1.10;0.90;;;;;;;19.65;80.21;98904.06;5094178;28;41359;-84
2021/07/11 07:28:13;;;;;;;1.33;1.23;;;;;;;19.79;80.24;98915.25;5110541;28;39059;-85
2021/07/11 07:30:41;;;;;;;0.77;0.77;;;;;;;19.73;79.91;98901.44;5094350;28;40923;-85
2021/07/11 07:33:10;;;;;;;1.00;0.87;;;;;;;19.80;79.75;98903.50;5105030;28;41743;-83
2021/07/11 07:35:38;;;;;;;1.40;1.30;;;;;;;19.86;79.84;98906.44;5113831;28;42042;-86
2021/07/11 07:38:06;;;;;;;0.80;0.80;;;;;;;19.99;79.40;98914.13;5094282;28;39911;-84
2021/07/11 07:40:36;;;;;;;1.53;1.20;;;;;;;19.97;79.39;98898.16;5111804;28;40836;-84
2021/07/11 07:43:09;;;;;;;0.80;0.80;;;;;;;19.98;79.37;98899.84;5114525;27;41834;-86
2021/07/11 07:45:37;;;;;;;0.60;0.60;;;;;;;20.03;79.37;98912.78;5115372;27;42754;-85
2021/07/11 07:48:05;;;;;;;0.77;0.77;;;;;;;19.92;79.33;98894.22;5115080;27;40093;-83
2021/07/11 07:50:33;;;;;;;0.83;0.83;;;;;;;20.00;79.39;98923.88;5115572;27;40882;-84
2021/07/11 07:53:01;;;;;;;1.63;1.53;;;;;;;19.85;79.21;98899.38;5111843;28;41900;-84
2021/07/11 07:55:30;;;;;;;0.90;0.90;;;;;;;19.71;79.21;98899.91;5110640;28;42626;-85
2021/07/11 07:58:01;;;;;;;1.23;1.13;;;;;;;19.83;79.40;98916.66;5094587;28;40171;-84
2021/07/11 08:00:31;;;;;;;1.10;1.00;;;;;;;19.86;78.84;98910.97;5093464;28;41875;-86
2021/07/11 08:03:00;;;;;;;0.97;0.90;;;;;;;19.86;78.84;98895.69;5124627;27;43502;-85
2021/07/11 08:05:28;;;;;;;0.80;0.80;;;;;;;20.08;79.07;98915.88;5114414;27;42138;-86
2021/07/11 08:07:56;;;;;;;0.80;0.80;;;;;;;20.22;78.48;98923.41;5113602;27;39045;-85
2021/07/11 08:10:24;;;;;;;1.20;1.10;;;;;;;20.25;78.44;98916.88;5112553;27;40712;-84
2021/07/11 08:12:52;;;;;;;1.63;1.53;;;;;;;20.41;78.07;98912.47;5113832;27;41736;-84
2021/07/11 08:15:21;;;;;;;1.00;1.00;;;;;;;20.47;78.26;98904.78;5100580;28;41247;-84
2021/07/11 08:17:51;;;;;;;1.23;1.13;;;;;;;20.49;78.34;98919.78;5109325;27;39092;-85
2021/07/11 08:20:21;;;;;;;1.33;1.23;;;;;;;20.51;77.78;98930.41;5093736;28;41366;-84
2021/07/11 08:22:49;;;;;;;0.70;0.70;;;;;;;20.31;77.69;98919.78;5103955;27;41857;-84
2021/07/11 08:25:18;;;;;;;1.43;1.20;;;;;;;20.31;77.64;98943.97;5110061;27;42561;-84
2021/07/11 08:27:48;;;;;;;0.70;0.70;;;;;;;20.19;77.68;98929.09;5114376;27;38891;-84
2021/07/11 08:30:17;;;;;;;0.90;0.90;;;;;;;20.21;77.77;98932.47;5113632;27;40945;-84
2021/07/11 08:32:46;;;;;;;0.93;0.93;;;;;;;20.42;77.67;98953.69;5117025;27;42474;-83
2021/07/11 08:35:15;;;;;;;1.10;1.00;;;;;;;20.43;77.76;98932.00;5116609;27;41726;-85
2021/07/11 08:37:43;;;;;;;0.93;0.87;;;;;;;20.61;77.55;98945.44;5134816;27;41210;-83
2021/07/11 08:40:13;;;;;;;0.80;0.80;;;;;;;20.70;77.55;98939.09;5130843;27;41985;-84
2021/07/11 08:42:42;;;;;;;1.00;0.90;;;;;;;20.81;77.09;98943.38;5112939;27;43020;-85
2021/07/11 08:45:12;;;;;;;0.60;0.60;;;;;;;20.84;76.82;98929.59;5096553;27;41016;-84
2021/07/11 08:47:41;;;;;;;1.57;1.47;;;;;;;21.04;76.58;98941.81;5116564;27;39245;-84
2021/07/11 08:50:14;;;;;;;1.17;1.07;;;;;;;21.13;76.16;98930.13;5117207;27;40804;-85
2021/07/11 08:52:42;;;;;;;1.20;1.10;;;;;;;21.45;75.79;98950.13;5117517;27;43137;-83
2021/07/11 08:55:15;;;;;;;0.80;0.80;;;;;;;21.67;75.41;98954.91;5116378;27;41292;-85
2021/07/11 08:57:48;;;;;;;1.27;1.17;;;;;;;21.88;74.86;98950.97;5113194;27;39895;-84
2021/07/11 09:00:17;;;;;;;1.10;1.00;;;;;;;22.11;73.85;98952.88;5114129;27;42015;-87
2021/07/11 09:02:45;;;;;;;0.93;0.93;;;;;;;22.14;73.13;98930.94;5115200;27;42253;-86
2021/07/11 09:05:31;;;;;;;0.73;0.73;;;;;;;22.50;71.89;98958.44;5116110;27;42112;-84
2021/07/11 09:08:01;;;;;;;0.60;0.60;;;;;;;22.70;71.36;98963.50;5113377;27;39004;-85
2021/07/11 09:10:31;;;;;;;0.70;0.70;;;;;;;22.89;71.24;98971.25;5112615;27;42100;-86
2021/07/11 09:13:08;;;;;;;0.90;0.90;;;;;;;23.01;70.70;98959.09;5106397;27;42861;-87
2021/07/11 09:15:37;;;;;;;0.73;0.73;;;;;;;23.26;70.17;98971.50;5113472;27;41222;-86
2021/07/11 09:18:06;;;;;;;0.80;0.80;;;;;;;23.32;69.22;98971.84;5112196;27;39727;-87
2021/07/11 09:20:51;;;;;;;1.43;0.63;;;;;;;23.52;69.25;98987.50;5113281;27;40950;-87
2021/07/11 09:23:19;;;;;;;0.87;0.87;;;;;;;23.54;68.89;98979.22;5115227;27;44009;-86
2021/07/11 09:26:05;;;;;;;0.73;0.60;;;;;;;23.58;68.13;98981.41;5116297;27;41137;-87
2021/07/11 09:28:42;;;;;;;0.90;0.90;;;;;;;23.54;67.50;98973.81;5096175;27;40143;-89
2021/07/11 09:31:17;;;;;;;0.60;0.60;;;;;;;23.61;67.56;98975.63;5109244;28;40821;-88
2021/07/11 09:33:49;;;;;;;0.77;0.70;;;;;;;23.66;67.78;98974.28;5092042;28;43274;-88
2021/07/11 09:36:23;;;;;;;0.63;0.60;;;;;;;23.85;67.89;98993.63;5090105;28;41359;-88
2021/07/11 09:38:53;;;;;;;0.63;0.63;;;;;;;23.59;67.43;98930.88;5092391;28;39267;-88
2021/07/11 09:41:27;;;;;;;0.80;0.80;;;;;;;24.07;67.03;98999.25;5099445;27;41823;-88
2021/07/11 09:43:57;;;;;;;0.50;0.50;;;;;;;24.00;65.35;98981.00;5112168;27;42005;-90
2021/07/11 09:46:33;;;;;;;3.40;0.80;;;;;;;24.00;65.15;98986.44;5130520;27;42173;-89
2021/07/11 09:49:01;;;;;;;0.40;0.40;;;;;;;24.04;65.84;98992.34;5113469;27;38998;-90
2021/07/11 09:51:31;;;;;;;0.60;0.60;;;;;;;24.10;66.05;98993.50;5106577;27;42040;-89
2021/07/11 09:54:08;;;;;;;0.93;0.83;;;;;;;24.28;65.91;98985.94;5112760;27;41972;-89
2021/07/11 09:56:38;;;;;;;0.60;0.50;;;;;;;24.62;64.89;98991.75;5099984;27;41083;-88
2021/07/11 09:59:08;;;;;;;0.90;0.70;;;;;;;24.88;64.63;98996.78;5112958;27;40295;-91
2021/07/11 10:01:40;;;;;;;0.53;0.53;;;;;;;25.16;63.55;98993.50;5112359;27;40382;-89
2021/07/11 10:04:13;;;;;;;0.60;0.60;;;;;;;25.31;63.54;98995.22;5129860;27;43833;-90
2021/07/11 10:06:43;;;;;;;0.73;0.73;;;;;;;25.34;62.40;98997.56;5109327;27;42578;-88
2021/07/11 10:09:11;;;;;;;0.50;0.50;;;;;;;25.24;61.78;98975.28;5118473;27;39162;-91
2021/07/11 10:11:39;;;;;;;0.60;0.60;;;;;;;25.37;62.39;98980.03;5110054;27;40737;-91
2021/07/11 10:14:10;;;;;;;0.47;0.47;;;;;;;25.48;61.82;98987.72;5113897;27;43107;-90
2021/07/11 10:16:40;;;;;;;0.60;0.60;;;;;;;25.56;61.88;98990.34;5114105;27;41525;-91
2021/07/11 10:19:10;;;;;;;0.50;0.50;;;;;;;25.64;60.99;98984.84;5113967;28;40266;-91
2021/07/11 10:21:44;;;;;;;0.50;0.50;;;;;;;25.92;60.98;99003.13;5096772;28;41111;-91
2021/07/11 10:24:23;;;;;;;0.70;0.70;;;;;;;26.03;60.05;98997.22;5106420;27;41583;-90
2021/07/11 10:26:58;;;;;;;0.63;0.63;;;;;;;26.14;59.80;99002.16;5111441;27;42296;-92
2021/07/11 10:29:29;;;;;;;0.60;0.60;;;;;;;26.06;59.38;98969.69;5113980;27;40153;-88
2021/07/11 10:31:59;;;;;;;0.60;0.60;;;;;;;26.25;59.20;98985.34;5108612;28;40632;-92
2021/07/11 10:34:41;;;;;;;0.63;0.60;;;;;;;26.34;58.83;98986.09;5094425;28;41826;-90
2021/07/11 10:37:12;;;;;;;0.50;0.50;;;;;;;26.47;57.84;98991.66;5077313;28;42345;-90
2021/07/11 10:39:44;;;;;;;0.70;0.70;;;;;;;26.65;56.94;98992.06;5077223;28;40565;-91
2021/07/11 10:42:12;;;;;;;1.00;1.00;;;;;;;26.97;56.21;98990.66;5075485;28;40875;-91
2021/07/11 10:44:43;;;;;;;0.53;0.53;;;;;;;27.31;56.07;99008.06;5076740;28;42343;-90
2021/07/11 10:47:10;;;;;;;0.53;0.53;;;;;;;27.30;55.83;98988.19;5071157;28;42900;-91
2021/07/11 10:49:53;;;;;;;0.70;0.70;;;;;;;27.51;55.55;99009.88;5091307;28;39078;-86
2021/07/11 10:52:24;;;;;;;0.50;0.50;;;;;;;27.37;54.33;98991.78;5078378;28;41543;-89
2021/07/11 10:54:59;;;;;;;0.60;0.60;;;;;;;27.46;54.54;99009.63;5082416;28;42030;-88
2021/07/11 10:57:32;;;;;;;0.50;0.50;;;;;;;27.48;53.46;99012.97;5073252;28;41911;-89
2021/07/11 11:00:27;;;;;;;0.60;0.60;;;;;;;27.37;53.29;98980.91;5056857;28;39020;-88
2021/07/11 11:03:22;;;;;;;0.40;0.40;;;;;;;27.58;54.04;99009.09;5108580;27;41777;-89
2021/07/11 11:05:52;;;;;;;0.40;0.40;;;;;;;27.54;52.92;99006.75;5114087;27;42471;-89
2021/07/11 11:08:51;;;;;;;0.57;0.57;;;;;;;27.53;53.83;98996.06;5128742;27;43049;-90
2021/07/11 11:11:31;;;;;;;0.80;0.50;;;;;;;27.52;54.76;98980.78;5115155;27;40379;-90
2021/07/11 11:14:06;;;;;;;0.30;0.30;;;;;;;27.67;54.31;99011.47;5114781;27;41073;-90
2021/07/11 11:16:47;;;;;;;0.40;0.40;;;;;;;27.41;52.82;99020.28;5112587;27;41696;-89
2021/07/11 11:19:18;;;;;;;0.87;0.87;;;;;;;27.07;54.49;99009.38;5114886;27;41324;-87
2021/07/11 11:21:54;;;;;;;0.50;0.50;;;;;;;26.67;54.58;99011.72;5116084;27;39298;-89
2021/07/11 11:24:21;;;;;;;0.70;0.70;;;;;;;26.06;55.50;98980.56;5092809;28;40821;-90
2021/07/11 11:26:51;;;;;;;0.60;0.60;;;;;;;25.82;56.02;99011.59;5073021;28;42818;-90
2021/07/11 11:29:26;;;;;;;0.77;0.77;;;;;;;25.45;56.68;98987.28;5055274;28;41160;-91
2021/07/11 11:32:08;;;;;;;0.73;0.73;;;;;;;25.20;57.09;98974.00;5069324;28;40042;-90
2021/07/11 11:34:40;;;;;;;0.60;0.50;;;;;;;24.88;57.16;98936.34;5078812;28;40769;-89
2021/07/11 11:37:08;;;;;;;0.60;0.50;;;;;;;25.24;58.63;99004.25;5076109;28;41780;-89
2021/07/11 11:39:38;;;;;;;0.60;0.60;;;;;;;24.95;59.12;98964.44;5078015;28;41357;-91
2021/07/11 11:42:08;;;;;;;0.50;0.50;;;;;;;24.95;59.34;99002.38;5077101;28;38985;-90
2021/07/11 11:44:36;;;;;;;0.80;0.80;;;;;;;24.65;59.43;98980.56;5077354;28;42688;-94
2021/07/11 11:47:04;;;;;;;0.50;0.50;;;;;;;24.44;59.54;98963.34;5073296;28;41875;-88
2021/07/11 11:49:33;;;;;;;0.70;0.70;;;;;;;24.56;59.95;98997.94;5078718;28;41040;-92